Time;durP1;ratioP1;P1;durP2;ratioP2;P2;SDS_P1;SDS_P2;PMS_P1;PMS_P2;Temp;Humidity;BMP_temperature;BMP_pressure;BME280_temperature;BME280_humidity;BME280_pressure;Samples;Min_cycle;Max_cycle;Signal;HPM_P1;HPM_P2
2024/01/16 00:08:29;;;;;;;1.80;1.60;;;;;;;-3.23;100.00;97587.05;433767;1256;127050;-68
2024/01/16 00:18:35;;;;;;;2.40;1.30;;;;;;;-3.24;100.00;97604.17;434019;1260;140087;-68
2024/01/16 00:28:43;;;;;;;;;;;;;;;-3.25;100.00;97623.23;433211;1256;139971;-68
2024/01/16 00:38:49;;;;;;;2.00;1.80;;;;;;;-3.26;100.00;97626.88;434025;1260;128561;-68
2024/01/16 00:48:55;;;;;;;2.60;2.20;;;;;;;-3.27;100.00;97642.80;433726;1257;140758;-68
2024/01/16 00:59:01;;;;;;;2.90;1.60;;;;;;;-3.27;100.00;97652.89;433708;1258;140831;-68
2024/01/16 01:09:08;;;;;;;4.00;2.10;;;;;;;-3.27;100.00;97656.85;433492;1258;141646;-69
2024/01/16 01:19:13;;;;;;;6.00;2.50;;;;;;;-3.31;100.00;97656.83;434296;1255;141382;-68
2024/01/16 01:29:18;;;;;;;;;;;;;;;-3.38;100.00;97664.95;432799;1260;140423;-68
2024/01/16 01:39:24;;;;;;;5.30;2.70;;;;;;;-3.52;100.00;97672.84;432747;1258;127962;-67
2024/01/16 01:49:30;;;;;;;2.80;2.30;;;;;;;-3.75;100.00;97687.37;433532;1255;139950;-68
2024/01/16 01:59:36;;;;;;;3.30;1.50;;;;;;;-4.10;100.00;97697.30;433559;1257;140880;-68
2024/01/16 02:09:42;;;;;;;3.70;1.60;;;;;;;-4.40;100.00;97709.27;432789;1260;140286;-67
2024/01/16 02:19:47;;;;;;;1.20;1.00;;;;;;;-4.63;100.00;97726.93;432977;1256;141589;-68
2024/01/16 02:29:53;;;;;;;1.70;1.40;;;;;;;-4.87;100.00;97735.19;432421;1255;425784;-68
2024/01/16 02:40:02;;;;;;;1.60;1.50;;;;;;;-5.09;100.00;97756.86;432779;1256;141307;-68
2024/01/16 02:50:10;;;;;;;3.50;1.40;;;;;;;-5.19;100.00;97767.05;437195;1255;140996;-69
2024/01/16 03:00:18;;;;;;;1.40;1.20;;;;;;;-5.31;100.00;97784.44;434091;1255;140677;-68
2024/01/16 03:10:24;;;;;;;3.30;1.70;;;;;;;-5.46;100.00;97798.50;436282;1259;141652;-69
2024/01/16 03:20:30;;;;;;;3.40;1.80;;;;;;;-5.58;100.00;97814.86;432832;1258;141180;-68
2024/01/16 03:30:36;;;;;;;3.30;2.20;;;;;;;-5.61;100.00;97817.15;432621;1260;140524;-68
2024/01/16 03:40:41;;;;;;;3.10;2.80;;;;;;;-5.62;100.00;97815.83;432952;1259;140214;-68
2024/01/16 03:50:47;;;;;;;1.20;1.10;;;;;;;-5.68;100.00;97826.18;433482;1260;140206;-69
2024/01/16 04:00:53;;;;;;;1.90;1.30;;;;;;;-5.70;100.00;97839.57;433130;1257;140325;-68
2024/01/16 04:11:00;;;;;;;1.30;1.00;;;;;;;-5.65;100.00;97847.27;433187;1260;141183;-68
2024/01/16 04:21:06;;;;;;;1.50;0.90;;;;;;;-5.72;100.00;97862.29;433827;1260;142086;-68
2024/01/16 04:31:13;;;;;;;1.30;1.20;;;;;;;-5.83;100.00;97869.04;433045;1257;141363;-68
2024/01/16 04:41:21;;;;;;;2.50;0.90;;;;;;;-5.86;100.00;97880.02;434473;1255;141073;-69
2024/01/16 04:51:27;;;;;;;3.20;1.30;;;;;;;-5.87;100.00;97896.06;436020;1260;140540;-69
2024/01/16 05:01:33;;;;;;;3.00;2.00;;;;;;;-5.94;100.00;97919.08;432803;1259;140058;-69
2024/01/16 05:11:39;;;;;;;1.60;1.30;;;;;;;-6.11;100.00;97943.17;432753;1260;140874;-69
2024/01/16 05:21:45;;;;;;;3.60;2.40;;;;;;;-6.14;100.00;97955.32;432889;1255;140289;-68
2024/01/16 05:31:51;;;;;;;1.40;1.20;;;;;;;-6.20;100.00;97974.89;432966;1259;140303;-69
2024/01/16 05:41:57;;;;;;;3.00;2.50;;;;;;;-6.39;100.00;97990.45;432877;1260;140204;-68
2024/01/16 05:52:03;;;;;;;1.90;1.20;;;;;;;-6.41;100.00;98006.33;435421;1257;140106;-68
2024/01/16 06:02:08;;;;;;;0.90;0.90;;;;;;;-6.27;100.00;98025.79;433102;1256;140259;-68
2024/01/16 06:12:14;;;;;;;1.60;1.20;;;;;;;-6.11;100.00;98036.88;432987;1256;140439;-68
2024/01/16 06:22:20;;;;;;;1.30;1.20;;;;;;;-6.04;100.00;98054.63;432698;1260;141364;-69
2024/01/16 06:32:25;;;;;;;3.40;2.00;;;;;;;-6.05;100.00;98076.27;432865;1256;140258;-69
2024/01/16 06:42:31;;;;;;;2.40;1.50;;;;;;;-6.12;100.00;98095.84;432748;1259;141042;-68
2024/01/16 06:52:37;;;;;;;3.30;2.10;;;;;;;-6.04;100.00;98115.27;432690;1256;140234;-67
2024/01/16 07:02:43;;;;;;;2.20;1.60;;;;;;;-5.93;100.00;98125.76;435568;1258;139773;-70
2024/01/16 07:12:51;;;;;;;5.10;1.70;;;;;;;-5.84;100.00;98148.93;432924;1259;142866;-69
2024/01/16 07:22:57;;;;;;;4.30;1.70;;;;;;;-5.74;100.00;98172.92;433051;1260;140945;-68
2024/01/16 07:33:03;;;;;;;2.30;1.90;;;;;;;-5.61;100.00;98194.47;433258;1260;139753;-71
2024/01/16 07:43:09;;;;;;;2.30;2.00;;;;;;;-5.25;100.00;98208.20;437092;1256;140777;-63
2024/01/16 07:53:16;;;;;;;3.50;2.70;;;;;;;-2.50;100.00;98213.20;432869;1256;140795;-74
2024/01/16 08:03:21;;;;;;;4.10;3.00;;;;;;;1.66;100.00;98216.58;435270;1259;139779;-69
2024/01/16 08:13:28;;;;;;;5.40;3.30;;;;;;;5.05;99.11;98216.66;434970;1256;138852;-72
2024/01/16 08:23:35;;;;;;;2.90;2.60;;;;;;;7.83;95.49;98233.46;438393;1259;139043;-68
2024/01/16 08:33:40;;;;;;;2.60;1.90;;;;;;;10.49;92.08;98229.28;433474;1256;138881;-71
2024/01/16 08:43:53;;;;;;;4.30;2.80;;;;;;;12.68;88.61;98237.00;434048;1260;139927;-68
2024/01/16 08:53:59;;;;;;;4.40;2.60;;;;;;;14.52;84.10;98252.14;434163;1259;139559;-68
2024/01/16 09:04:04;;;;;;;3.10;2.00;;;;;;;15.88;80.29;98268.96;437482;1259;138859;-70
2024/01/16 09:14:10;;;;;;;3.00;2.20;;;;;;;16.98;75.69;98280.77;433110;1256;138534;-75
2024/01/16 09:24:16;;;;;;;3.20;2.90;;;;;;;17.22;71.17;98293.33;432847;1260;138988;-64
2024/01/16 09:34:22;;;;;;;3.50;2.50;;;;;;;17.50;68.29;98299.19;433639;1256;139214;-71
2024/01/16 09:44:28;;;;;;;3.00;2.30;;;;;;;17.20;65.74;98306.45;433114;1260;139208;-64
2024/01/16 09:54:34;;;;;;;2.70;1.40;;;;;;;13.76;58.21;98317.52;433074;1260;138947;-64
2024/01/16 10:04:40;;;;;;;3.30;2.50;;;;;;;8.46;55.23;98326.42;432996;1257;139087;-66
2024/01/16 10:14:47;;;;;;;3.60;2.40;;;;;;;5.25;57.18;98340.91;433747;1260;142062;-64
2024/01/16 10:25:04;;;;;;;4.40;3.40;;;;;;;3.14;58.33;98342.91;437966;1255;139326;-63
2024/01/16 10:35:11;;;;;;;3.60;2.40;;;;;;;1.16;59.54;98358.63;433248;1260;138828;-59
2024/01/16 10:45:22;;;;;;;3.80;2.60;;;;;;;-0.37;61.11;98368.07;434348;1260;139108;-60
2024/01/16 10:55:30;;;;;;;6.00;2.70;;;;;;;-1.13;62.57;98373.15;438393;1260;138884;-66
2024/01/16 11:05:37;;;;;;;2.20;1.80;;;;;;;-1.19;64.33;98377.99;433582;1259;139408;-73
2024/01/16 11:15:44;;;;;;;6.30;3.30;;;;;;;-1.68;64.29;98392.34;443172;1260;140046;-69
2024/01/16 11:25:50;;;;;;;6.60;4.30;;;;;;;-2.35;65.49;98425.64;433426;1259;138910;-69
2024/01/16 11:35:56;;;;;;;4.60;2.90;;;;;;;-2.52;67.01;98434.21;433153;1260;140141;-70
2024/01/16 11:46:02;;;;;;;3.70;3.00;;;;;;;-2.30;67.97;98440.07;433151;1260;140625;-73
2024/01/16 11:56:24;;;;;;;;;;;;;;;-2.27;67.91;98432.80;436141;1259;139423;-74
2024/01/16 12:06:57;;;;;;;4.30;3.30;;;;;;;-2.33;68.57;98423.90;435553;1258;125414;-75
2024/01/16 12:17:13;;;;;;;5.70;3.30;;;;;;;-2.75;68.53;98435.71;438466;1255;139727;-74
2024/01/16 12:27:20;;;;;;;9.50;4.30;;;;;;;-2.62;69.85;98451.98;438766;1260;140023;-68
2024/01/16 12:37:26;;;;;;;6.40;5.00;;;;;;;-2.04;70.77;98461.58;435885;1257;141341;-70
2024/01/16 12:47:32;;;;;;;6.30;3.30;;;;;;;-1.81;69.98;98467.07;438240;1261;139598;-73
2024/01/16 12:57:38;;;;;;;4.10;3.10;;;;;;;-2.11;69.53;98488.39;437854;1260;140690;-65
2024/01/16 13:07:44;;;;;;;5.90;2.90;;;;;;;-2.20;70.34;98491.73;433018;1260;138593;-68
2024/01/16 13:17:50;;;;;;;5.10;3.10;;;;;;;-2.21;70.64;98496.73;432706;1257;140004;-69
2024/01/16 13:27:56;;;;;;;4.70;2.90;;;;;;;-2.44;70.57;98501.34;432989;1260;138966;-64
2024/01/16 13:38:03;;;;;;;3.60;2.90;;;;;;;-2.65;71.06;98517.52;433085;1260;138839;-63
2024/01/16 13:48:10;;;;;;;3.90;3.50;;;;;;;-2.86;71.25;98512.93;432775;1260;140011;-65
2024/01/16 13:58:16;;;;;;;5.90;4.10;;;;;;;-3.11;71.71;98516.82;432897;1260;139864;-63
2024/01/16 14:08:22;;;;;;;6.80;3.80;;;;;;;-3.50;71.87;98520.33;433182;1260;139004;-61
2024/01/16 14:18:26;;;;;;;;;;;;;;;-3.80;72.77;98537.45;432890;1260;138873;-62
2024/01/16 14:28:33;;;;;;;8.20;4.40;;;;;;;-3.94;73.68;98543.23;432569;1258;174982;-64
2024/01/16 14:38:39;;;;;;;7.70;5.50;;;;;;;-4.05;74.60;98552.34;433016;1258;138828;-60
2024/01/16 14:48:46;;;;;;;;;;;;;;;-3.99;75.44;98562.65;432792;1260;141053;-61
2024/01/16 14:58:51;;;;;;;5.60;4.60;;;;;;;-3.96;75.71;98574.73;435091;1258;125448;-62
2024/01/16 15:08:56;;;;;;;;;;;;;;;-4.00;75.85;98585.76;433265;1259;140193;-60
2024/01/16 15:19:02;;;;;;;8.30;4.90;;;;;;;-4.07;76.29;98587.27;434111;1257;125962;-62
2024/01/16 15:29:09;;;;;;;6.00;4.50;;;;;;;-4.10;76.90;98602.55;433144;1260;139133;-61
2024/01/16 15:39:16;;;;;;;6.00;4.60;;;;;;;-4.11;77.44;98620.66;439074;1256;139674;-59
2024/01/16 15:49:22;;;;;;;7.30;6.20;;;;;;;-4.13;77.76;98630.29;434437;1255;140220;-59
2024/01/16 15:59:28;;;;;;;5.60;4.00;;;;;;;-4.14;78.15;98643.82;432670;1258;139677;-58
2024/01/16 16:09:35;;;;;;;10.00;6.30;;;;;;;-4.23;78.16;98653.03;432642;1260;140760;-60
2024/01/16 16:19:42;;;;;;;139.80;76.00;;;;;;;-4.44;78.46;98663.33;433157;1257;140226;-60
2024/01/16 16:29:47;;;;;;;22.20;13.80;;;;;;;-4.49;79.15;98668.73;432736;1257;140444;-59
2024/01/16 16:39:53;;;;;;;58.20;29.90;;;;;;;-4.54;79.51;98678.03;432605;1258;140184;-60
2024/01/16 16:49:59;;;;;;;34.30;19.10;;;;;;;-4.60;80.23;98679.15;432994;1256;140961;-59
2024/01/16 17:00:08;;;;;;;65.00;37.20;;;;;;;-4.63;80.75;98671.52;432427;1258;141062;-60
2024/01/16 17:10:14;;;;;;;77.10;44.40;;;;;;;-4.77;80.79;98674.84;440111;1255;140431;-55
2024/01/16 17:20:20;;;;;;;25.30;15.20;;;;;;;-4.96;81.45;98675.29;433124;1258;143222;-54
2024/01/16 17:30:27;;;;;;;22.00;15.00;;;;;;;-5.00;82.31;98684.41;432693;1260;140530;-56
2024/01/16 17:40:34;;;;;;;18.30;12.20;;;;;;;-4.98;82.82;98681.98;432694;1259;140184;-55
2024/01/16 17:50:39;;;;;;;36.80;21.80;;;;;;;-5.04;83.16;98697.25;432801;1260;141071;-58
2024/01/16 18:00:45;;;;;;;43.50;26.30;;;;;;;-5.28;82.98;98697.09;432909;1260;140074;-56
2024/01/16 18:10:53;;;;;;;40.80;29.00;;;;;;;-5.67;83.25;98696.40;432537;1258;140729;-54
2024/01/16 18:20:59;;;;;;;45.30;30.30;;;;;;;-5.98;83.93;98704.11;434132;1256;141225;-56
2024/01/16 18:31:05;;;;;;;90.40;50.70;;;;;;;-6.27;84.57;98713.95;433006;1258;140807;-55
2024/01/16 18:41:10;;;;;;;68.50;40.80;;;;;;;-6.45;85.17;98729.12;433469;1260;140147;-56
2024/01/16 18:51:17;;;;;;;64.60;41.80;;;;;;;-6.43;85.91;98732.50;432992;1256;139965;-56
2024/01/16 19:01:23;;;;;;;75.90;49.50;;;;;;;-6.42;86.46;98741.87;433155;1256;139742;-56
2024/01/16 19:11:28;;;;;;;90.30;64.40;;;;;;;-6.26;87.17;98749.90;432564;1256;140606;-54
2024/01/16 19:21:34;;;;;;;78.00;52.70;;;;;;;-6.13;86.91;98746.88;432718;1256;140167;-55
2024/01/16 19:31:40;;;;;;;64.60;41.90;;;;;;;-6.16;86.77;98739.08;432751;1256;141835;-55
2024/01/16 19:41:46;;;;;;;75.20;45.80;;;;;;;-6.15;87.52;98750.99;432663;1256;140021;-56
2024/01/16 19:51:52;;;;;;;66.80;43.80;;;;;;;-6.07;87.89;98756.71;432685;1257;140905;-54
2024/01/16 20:01:57;;;;;;;60.70;38.90;;;;;;;-6.00;88.22;98751.16;432915;1260;141355;-56
2024/01/16 20:12:04;;;;;;;69.70;45.90;;;;;;;-5.96;88.67;98761.85;433044;1256;140944;-56
2024/01/16 20:22:10;;;;;;;72.30;45.80;;;;;;;-5.93;89.08;98768.29;434729;1255;140584;-56
2024/01/16 20:32:16;;;;;;;71.10;44.10;;;;;;;-5.85;89.84;98768.39;433319;1257;140529;-59
2024/01/16 20:42:22;;;;;;;76.60;49.70;;;;;;;-5.73;90.54;98764.67;433518;1255;140429;-56
2024/01/16 20:52:27;;;;;;;77.30;49.30;;;;;;;-5.63;90.96;98765.77;432825;1260;140858;-56
2024/01/16 21:02:33;;;;;;;59.80;40.10;;;;;;;-5.57;91.73;98758.86;433020;1260;140762;-56
2024/01/16 21:12:41;;;;;;;52.80;36.20;;;;;;;-5.53;92.14;98750.46;433136;1259;139816;-54
2024/01/16 21:22:47;;;;;;;62.10;38.60;;;;;;;-5.55;92.23;98738.72;433040;1257;140751;-60
2024/01/16 21:32:52;;;;;;;58.50;38.00;;;;;;;-5.65;92.38;98740.37;432960;1256;141711;-58
2024/01/16 21:42:58;;;;;;;54.40;35.70;;;;;;;-5.77;92.64;98732.16;433118;1257;140355;-59
2024/01/16 21:53:04;;;;;;;53.40;37.10;;;;;;;-5.93;92.95;98722.45;433288;1260;139679;-59
2024/01/16 22:03:10;;;;;;;56.40;36.90;;;;;;;-6.14;93.40;98715.88;433013;1255;139807;-59
2024/01/16 22:13:18;;;;;;;51.90;34.00;;;;;;;-6.25;94.58;98708.67;433132;1256;141302;-59
2024/01/16 22:23:24;;;;;;;46.50;31.80;;;;;;;-6.16;96.25;98702.27;433052;1257;141492;-58
2024/01/16 22:33:30;;;;;;;35.90;25.50;;;;;;;-5.97;97.81;98701.02;433225;1256;140026;-59
2024/01/16 22:43:36;;;;;;;40.80;28.30;;;;;;;-5.76;98.49;98700.42;432909;1259;140525;-58
2024/01/16 22:53:42;;;;;;;40.70;26.10;;;;;;;-5.57;99.13;98694.91;433118;1260;139701;-59
2024/01/16 23:03:49;;;;;;;39.50;27.10;;;;;;;-5.39;99.41;98689.05;432998;1258;141642;-59
2024/01/16 23:13:55;;;;;;;23.70;15.80;;;;;;;-5.24;99.57;98672.14;433043;1256;140539;-59
2024/01/16 23:24:01;;;;;;;20.10;13.80;;;;;;;-5.02;100.00;98666.33;432730;1260;141416;-60
2024/01/16 23:34:07;;;;;;;23.70;14.30;;;;;;;-4.88;100.00;98669.70;432619;1256;141084;-58
2024/01/16 23:44:13;;;;;;;19.80;14.00;;;;;;;-4.86;100.00;98663.87;433074;1260;140520;-59
2024/01/16 23:54:18;;;;;;;23.70;15.80;;;;;;;-4.77;100.00;98663.40;433887;1259;141753;-58
